createdAt,value
2023-04-20T00:01:27.406Z,36.80
2023-04-20T00:03:54.448Z,36.80
2023-04-20T00:06:21.969Z,36.80
2023-04-20T00:08:49.069Z,36.80
2023-04-20T00:11:16.035Z,36.40
2023-04-20T00:13:43.002Z,36.20
2023-04-20T00:16:10.001Z,36.60
2023-04-20T00:18:36.911Z,36.20
2023-04-20T00:21:04.048Z,36.40
2023-04-20T00:23:30.954Z,36.20
2023-04-20T00:25:57.925Z,36.20
2023-04-20T00:28:24.744Z,36.50
2023-04-20T00:30:51.614Z,36.20
2023-04-20T00:33:18.704Z,36.40
2023-04-20T00:35:45.629Z,36.30
2023-04-20T00:38:12.503Z,36.40
2023-04-20T00:40:39.505Z,36.90
2023-04-20T00:43:13.549Z,37.50
2023-04-20T00:45:40.720Z,37.40
2023-04-20T00:48:07.764Z,37.90
2023-04-20T00:50:35.960Z,37.50
2023-04-20T00:53:03.281Z,37.90
2023-04-20T00:55:30.889Z,39.10
2023-04-20T00:57:58.430Z,39.00
2023-04-20T01:00:26.478Z,39.70
2023-04-20T01:02:53.554Z,39.70
2023-04-20T01:05:21.267Z,40.10
2023-04-20T01:07:49.637Z,40.40
2023-04-20T01:10:16.534Z,40.40
2023-04-20T01:12:43.547Z,40.70
2023-04-20T01:15:11.256Z,40.90
2023-04-20T01:17:39.946Z,41.60
2023-04-20T01:20:09.520Z,41.40
2023-04-20T01:22:51.014Z,41.90
2023-04-20T01:25:18.497Z,41.80
2023-04-20T01:27:46.338Z,41.90
2023-04-20T01:30:13.722Z,41.70
2023-04-20T01:32:41.360Z,41.90
2023-04-20T01:35:09.448Z,41.80
2023-04-20T01:37:38.730Z,41.50
2023-04-20T01:40:06.637Z,42.20
2023-04-20T01:42:33.561Z,41.80
2023-04-20T01:45:00.529Z,41.90
2023-04-20T01:47:27.430Z,41.80
2023-04-20T01:49:54.296Z,42.40
2023-04-20T01:52:21.205Z,42.70
2023-04-20T01:54:48.820Z,42.70
2023-04-20T01:57:15.725Z,42.70
2023-04-20T01:59:42.646Z,43.40
2023-04-20T02:02:09.712Z,43.40
2023-04-20T02:04:36.763Z,43.50
2023-04-20T02:07:03.644Z,43.30
2023-04-20T02:09:30.564Z,43.80
2023-04-20T02:11:58.114Z,43.80
2023-04-20T02:14:24.985Z,44.30
2023-04-20T02:16:53.467Z,44.60
2023-04-20T02:19:21.161Z,44.60
2023-04-20T02:21:48.164Z,44.80
2023-04-20T02:24:15.086Z,45.30
2023-04-20T02:26:41.815Z,45.60
2023-04-20T02:29:08.757Z,46.10
2023-04-20T02:31:35.706Z,46.50
2023-04-20T02:34:02.758Z,46.60
2023-04-20T02:36:29.690Z,47.00
2023-04-20T02:38:56.625Z,48.00
2023-04-20T02:41:23.458Z,47.50
2023-04-20T02:43:50.491Z,47.60
2023-04-20T02:46:18.065Z,47.70
2023-04-20T02:48:45.693Z,47.60
2023-04-20T02:51:12.737Z,48.00
2023-04-20T02:53:43.780Z,48.30
2023-04-20T02:56:26.355Z,48.20
2023-04-20T02:58:55.941Z,47.90
2023-04-20T03:01:27.846Z,48.00
2023-04-20T03:04:15.157Z,48.10
2023-04-20T03:07:05.019Z,48.60
2023-04-20T03:09:34.596Z,48.90
2023-04-20T03:12:10.890Z,49.00
2023-04-20T03:14:56.506Z,48.90
2023-04-20T03:17:35.071Z,49.30
2023-04-20T03:20:02.034Z,48.80
2023-04-20T03:22:29.113Z,49.70
2023-04-20T03:24:59.016Z,49.70
2023-04-20T03:28:03.931Z,49.10
2023-04-20T03:30:30.947Z,49.00
2023-04-20T03:33:05.788Z,48.80
2023-04-20T03:35:32.864Z,47.60
2023-04-20T03:37:59.754Z,48.30
2023-04-20T03:40:27.058Z,48.40
2023-04-20T03:42:54.011Z,48.30
2023-04-20T03:45:21.063Z,48.30
2023-04-20T03:47:49.400Z,48.30
2023-04-20T03:50:16.346Z,48.30
2023-04-20T03:52:43.300Z,47.60
2023-04-20T03:55:11.289Z,47.60
2023-04-20T03:57:45.511Z,48.00
2023-04-20T04:00:13.113Z,47.70
2023-04-20T04:02:46.366Z,48.30
2023-04-20T04:05:17.322Z,48.30
2023-04-20T04:07:44.278Z,48.00
2023-04-20T04:10:13.180Z,48.40
2023-04-20T04:12:40.169Z,48.10
2023-04-20T04:15:07.980Z,48.00
2023-04-20T04:17:40.437Z,48.00
2023-04-20T04:20:11.431Z,48.40
2023-04-20T04:22:38.552Z,48.20
2023-04-20T04:25:30.951Z,48.20
2023-04-20T04:27:58.099Z,48.40
2023-04-20T04:30:27.507Z,48.30
2023-04-20T04:32:55.553Z,48.20
2023-04-20T04:35:22.821Z,48.40
2023-04-20T04:37:49.773Z,48.60
2023-04-20T04:40:18.469Z,48.30
2023-04-20T04:42:47.988Z,48.30
2023-04-20T04:45:15.024Z,48.60
2023-04-20T04:47:43.334Z,48.40
2023-04-20T04:50:10.756Z,48.60
2023-04-20T04:52:37.625Z,48.60
2023-04-20T04:55:08.429Z,48.50
2023-04-20T04:57:36.276Z,48.30
2023-04-20T05:00:06.930Z,48.40
2023-04-20T05:02:34.231Z,48.20
2023-04-20T05:05:01.303Z,48.00
2023-04-20T05:07:28.134Z,48.70
2023-04-20T05:09:55.133Z,48.70
2023-04-20T05:12:22.276Z,48.70
2023-04-20T05:14:49.143Z,48.80
2023-04-20T05:17:16.077Z,48.90
2023-04-20T05:19:42.909Z,49.10
2023-04-20T05:22:09.893Z,50.20
2023-04-20T05:24:37.062Z,49.50
2023-04-20T05:27:04.281Z,49.80
2023-04-20T05:29:31.328Z,49.80
2023-04-20T05:31:58.332Z,49.60
2023-04-20T05:34:25.207Z,50.10
2023-04-20T05:36:52.863Z,50.20
2023-04-20T05:39:19.988Z,50.30
2023-04-20T05:41:47.748Z,50.30
2023-04-20T05:44:14.514Z,50.50
2023-04-20T05:46:41.383Z,50.40
2023-04-20T05:49:08.292Z,50.80
2023-04-20T05:51:35.239Z,50.60
2023-04-20T05:54:02.370Z,50.40
2023-04-20T05:56:29.394Z,50.50
2023-04-20T05:58:57.032Z,50.10
2023-04-20T06:01:23.882Z,50.30
2023-04-20T06:03:51.020Z,50.20
2023-04-20T06:06:18.159Z,50.90
2023-04-20T06:08:45.081Z,50.70
2023-04-20T06:11:11.911Z,50.90
2023-04-20T06:13:38.646Z,51.00
2023-04-20T06:16:09.625Z,50.80
2023-04-20T06:18:37.616Z,50.80
2023-04-20T06:21:04.818Z,50.70
2023-04-20T06:23:31.903Z,51.00
2023-04-20T06:25:58.713Z,50.40
2023-04-20T06:28:25.789Z,49.90
2023-04-20T06:30:52.816Z,50.00
2023-04-20T06:33:19.720Z,49.60
2023-04-20T06:35:46.616Z,49.40
2023-04-20T06:38:13.898Z,49.00
2023-04-20T06:40:40.694Z,48.40
2023-04-20T06:43:07.471Z,48.80
2023-04-20T06:45:34.629Z,48.40
2023-04-20T06:48:02.135Z,48.00
2023-04-20T06:50:29.168Z,47.70
2023-04-20T06:52:55.964Z,47.30
2023-04-20T06:55:22.964Z,47.10
2023-04-20T06:57:49.923Z,47.50
2023-04-20T07:00:17.724Z,47.70
2023-04-20T07:02:49.968Z,47.60
2023-04-20T07:05:18.520Z,47.70
2023-04-20T07:07:45.685Z,48.00
2023-04-20T07:10:14.718Z,47.70
2023-04-20T07:12:43.545Z,47.30
2023-04-20T07:15:11.252Z,47.30
2023-04-20T07:17:38.351Z,47.60
2023-04-20T07:20:08.989Z,47.30
2023-04-20T07:22:36.998Z,47.30
2023-04-20T07:25:06.043Z,48.30
2023-04-20T07:27:38.266Z,48.80
2023-04-20T07:30:06.776Z,49.40
2023-04-20T07:32:34.715Z,50.10
2023-04-20T07:35:01.845Z,50.50
2023-04-20T07:37:29.223Z,50.70
2023-04-20T07:39:56.128Z,52.10
2023-04-20T07:42:23.230Z,52.40
2023-04-20T07:44:50.428Z,53.50
2023-04-20T07:47:17.533Z,53.80
2023-04-20T07:49:45.148Z,54.10
2023-04-20T07:52:16.770Z,54.40
2023-04-20T07:54:47.933Z,54.80
2023-04-20T07:57:15.221Z,54.50
2023-04-20T07:59:42.276Z,55.20
2023-04-20T08:02:09.266Z,54.20
2023-04-20T08:04:38.349Z,54.20
2023-04-20T08:07:05.565Z,54.30
2023-04-20T08:09:32.441Z,55.00
2023-04-20T08:12:00.471Z,54.50
2023-04-20T08:14:27.461Z,54.30
2023-04-20T08:16:54.373Z,54.60
2023-04-20T08:19:21.415Z,54.70
2023-04-20T08:21:48.429Z,54.80
2023-04-20T08:24:15.767Z,54.90
2023-04-20T08:26:43.476Z,54.90
2023-04-20T08:29:10.820Z,55.00
2023-04-20T08:31:37.845Z,55.50
2023-04-20T08:34:04.777Z,55.60
2023-04-20T08:36:32.299Z,55.20
2023-04-20T08:39:13.953Z,55.50
2023-04-20T08:41:41.457Z,55.00
2023-04-20T08:44:08.740Z,55.70
2023-04-20T08:46:36.154Z,55.00
2023-04-20T08:49:04.032Z,53.90
2023-04-20T08:51:33.917Z,53.70
2023-04-20T08:54:07.978Z,53.00
2023-04-20T08:56:40.180Z,53.30
2023-04-20T08:59:10.334Z,52.70
2023-04-20T09:01:41.607Z,52.10
2023-04-20T09:04:24.448Z,52.00
2023-04-20T09:06:54.332Z,52.00
2023-04-20T09:09:23.148Z,52.00
2023-04-20T09:12:11.001Z,52.20
2023-04-20T09:14:45.856Z,52.00
2023-04-20T09:17:14.913Z,52.40
2023-04-20T09:19:44.809Z,52.20
2023-04-20T09:22:12.435Z,52.60
2023-04-20T09:24:41.243Z,53.00
2023-04-20T09:27:18.307Z,52.30
2023-04-20T09:29:57.360Z,52.40
2023-04-20T09:32:25.078Z,52.10
2023-04-20T09:34:52.007Z,51.90
2023-04-20T09:37:19.013Z,51.90
2023-04-20T09:39:46.734Z,52.10
2023-04-20T09:42:15.654Z,51.80
2023-04-20T09:44:43.334Z,51.70
2023-04-20T09:47:21.290Z,51.60
2023-04-20T09:49:48.392Z,52.00
2023-04-20T09:52:19.067Z,52.30
2023-04-20T09:54:46.428Z,53.60
2023-04-20T09:57:14.561Z,52.30
2023-04-20T09:59:44.138Z,51.90
2023-04-20T10:02:12.680Z,51.90
2023-04-20T10:04:58.926Z,53.90
2023-04-20T10:07:27.831Z,53.00
2023-04-20T10:10:12.841Z,52.70
2023-04-20T10:12:51.771Z,52.80
2023-04-20T10:15:19.418Z,52.30
2023-04-20T10:17:46.487Z,51.30
2023-04-20T10:20:24.175Z,51.70
2023-04-20T10:23:07.830Z,51.20
2023-04-20T10:25:35.156Z,51.10
2023-04-20T10:28:05.456Z,51.40
2023-04-20T10:30:33.527Z,51.80
2023-04-20T10:33:11.367Z,51.30
2023-04-20T10:35:49.498Z,50.20
2023-04-20T10:38:33.582Z,51.10
2023-04-20T10:41:07.448Z,50.40
2023-04-20T10:43:42.203Z,50.30
2023-04-20T10:46:19.616Z,51.50
2023-04-20T10:49:04.776Z,51.40
2023-04-20T10:51:32.340Z,51.60
2023-04-20T10:54:08.820Z,51.40
2023-04-20T10:56:49.524Z,50.70
2023-04-20T10:59:21.792Z,50.30
2023-04-20T11:01:49.760Z,50.50
2023-04-20T11:04:18.911Z,51.90
2023-04-20T11:06:48.180Z,51.80
2023-04-20T11:09:23.575Z,51.70
2023-04-20T11:12:04.771Z,51.30
2023-04-20T11:14:40.169Z,50.50
2023-04-20T11:17:07.583Z,50.00
2023-04-20T11:19:36.219Z,49.00
2023-04-20T11:22:04.711Z,48.70
2023-04-20T11:24:34.026Z,49.60
2023-04-20T11:27:02.253Z,49.40
2023-04-20T11:29:37.877Z,48.70
2023-04-20T11:32:10.233Z,48.30
2023-04-20T11:34:39.214Z,48.30
2023-04-20T11:37:10.574Z,46.80
2023-04-20T11:39:38.093Z,45.80
2023-04-20T11:42:05.600Z,45.60
2023-04-20T11:44:32.907Z,44.80
2023-04-20T11:46:59.990Z,44.80
2023-04-20T11:49:28.883Z,45.00
2023-04-20T11:51:56.119Z,45.50
2023-04-20T11:54:24.052Z,45.90
2023-04-20T11:56:51.631Z,46.30
2023-04-20T11:59:20.351Z,46.80
2023-04-20T12:01:48.010Z,46.70
2023-04-20T12:04:16.079Z,46.90
2023-04-20T12:06:43.726Z,46.80
2023-04-20T12:09:10.948Z,47.00
2023-04-20T12:11:38.144Z,47.90
2023-04-20T12:14:05.144Z,48.40
2023-04-20T12:16:32.345Z,46.70
2023-04-20T12:18:59.535Z,46.20
2023-04-20T12:21:27.373Z,45.90
2023-04-20T12:23:54.398Z,46.40
2023-04-20T12:26:22.632Z,46.80
2023-04-20T12:28:52.312Z,47.20
2023-04-20T12:31:19.242Z,47.20
2023-04-20T12:33:46.237Z,47.10
2023-04-20T12:36:13.125Z,47.30
2023-04-20T12:38:40.035Z,47.70
2023-04-20T12:41:07.078Z,48.00
2023-04-20T12:43:33.997Z,48.00
2023-04-20T12:46:01.082Z,47.90
2023-04-20T12:48:27.951Z,47.90
2023-04-20T12:50:54.856Z,48.40
2023-04-20T12:53:21.758Z,48.10
2023-04-20T12:55:52.966Z,48.00
2023-04-20T12:58:24.631Z,48.80
2023-04-20T13:00:51.762Z,49.40
2023-04-20T13:03:18.873Z,49.50
2023-04-20T13:05:46.335Z,49.40
2023-04-20T13:08:13.174Z,49.00
2023-04-20T13:10:42.730Z,48.90
2023-04-20T13:13:11.123Z,48.30
2023-04-20T13:15:39.463Z,48.80
2023-04-20T13:18:07.358Z,48.70
2023-04-20T13:20:34.180Z,48.30
2023-04-20T13:23:01.894Z,48.30
2023-04-20T13:25:32.604Z,48.10
2023-04-20T13:28:01.007Z,48.20
2023-04-20T13:30:28.266Z,46.90
2023-04-20T13:32:55.400Z,47.00
2023-04-20T13:35:22.387Z,47.90
2023-04-20T13:37:49.271Z,47.60
2023-04-20T13:40:16.090Z,47.90
2023-04-20T13:42:42.864Z,48.10
2023-04-20T13:45:10.430Z,47.80
2023-04-20T13:47:38.867Z,48.30
2023-04-20T13:50:07.140Z,48.60
2023-04-20T13:52:34.233Z,48.30
2023-04-20T13:55:01.129Z,48.10
2023-04-20T13:57:28.017Z,49.80
2023-04-20T13:59:54.946Z,49.00
2023-04-20T14:02:21.887Z,48.80
2023-04-20T14:04:49.116Z,48.70
2023-04-20T14:07:16.027Z,48.10
2023-04-20T14:09:44.269Z,48.00
2023-04-20T14:12:12.760Z,47.60
2023-04-20T14:14:40.238Z,47.90
2023-04-20T14:17:07.190Z,47.80
2023-04-20T14:19:33.968Z,48.00
2023-04-20T14:22:00.906Z,47.50
2023-04-20T14:24:27.731Z,48.40
2023-04-20T14:26:54.618Z,48.40
2023-04-20T14:29:21.461Z,49.10
2023-04-20T14:31:48.834Z,48.70
2023-04-20T14:34:16.067Z,48.30
2023-04-20T14:36:43.097Z,48.00
2023-04-20T14:39:09.960Z,47.90
2023-04-20T14:41:36.910Z,48.20
2023-04-20T14:44:05.080Z,48.40
2023-04-20T14:46:32.025Z,48.60
2023-04-20T14:48:58.992Z,48.60
2023-04-20T14:51:27.173Z,49.10
2023-04-20T14:53:54.197Z,49.40
2023-04-20T14:56:21.049Z,48.30
2023-04-20T14:58:48.163Z,48.40
2023-04-20T15:01:15.638Z,48.40
2023-04-20T15:03:43.064Z,48.40
2023-04-20T15:06:11.353Z,48.50
2023-04-20T15:08:38.268Z,48.60
2023-04-20T15:11:05.730Z,48.30
2023-04-20T15:13:32.772Z,48.00
2023-04-20T15:15:59.890Z,48.10
2023-04-20T15:18:26.832Z,47.10
2023-04-20T15:20:53.791Z,46.20
2023-04-20T15:23:20.691Z,46.30
2023-04-20T15:25:47.545Z,46.10
2023-04-20T15:28:14.372Z,46.90
2023-04-20T15:30:41.749Z,46.90
2023-04-20T15:33:08.829Z,47.10
2023-04-20T15:35:36.222Z,47.40
2023-04-20T15:38:03.641Z,46.60
2023-04-20T15:40:30.582Z,46.20
2023-04-20T15:42:57.644Z,47.80
2023-04-20T15:45:24.720Z,47.70
2023-04-20T15:47:51.925Z,48.10
2023-04-20T15:50:19.127Z,46.40
2023-04-20T15:52:49.553Z,45.90
2023-04-20T15:55:16.865Z,45.40
2023-04-20T15:57:44.732Z,45.70
2023-04-20T16:00:12.804Z,45.40
2023-04-20T16:02:40.881Z,45.10
2023-04-20T16:05:09.115Z,46.00
2023-04-20T16:07:36.009Z,45.50
2023-04-20T16:10:03.040Z,46.40
2023-04-20T16:12:29.954Z,45.80
2023-04-20T16:14:57.417Z,45.60
2023-04-20T16:17:24.444Z,46.00
2023-04-20T16:19:51.458Z,45.50
2023-04-20T16:22:18.424Z,45.50
2023-04-20T16:24:45.569Z,45.80
2023-04-20T16:27:12.522Z,45.10
2023-04-20T16:29:39.398Z,45.20
2023-04-20T16:32:06.709Z,44.30
2023-04-20T16:34:33.574Z,44.10
2023-04-20T16:37:00.734Z,44.30
2023-04-20T16:39:27.662Z,44.90
2023-04-20T16:41:54.645Z,45.50
2023-04-20T16:44:21.632Z,45.50
2023-04-20T16:46:51.842Z,45.70
2023-04-20T16:49:19.084Z,46.60
2023-04-20T16:51:45.924Z,46.10
2023-04-20T16:54:13.011Z,46.00
2023-04-20T16:56:40.702Z,46.00
2023-04-20T16:59:07.968Z,45.60
2023-04-20T17:01:34.883Z,46.20
2023-04-20T17:04:02.096Z,45.90
2023-04-20T17:06:29.323Z,44.90
2023-04-20T17:09:01.351Z,44.50
2023-04-20T17:11:28.429Z,44.30
2023-04-20T17:13:55.209Z,44.10
2023-04-20T17:16:22.090Z,44.50
2023-04-20T17:18:48.925Z,44.40
2023-04-20T17:21:15.812Z,44.70
2023-04-20T17:23:42.791Z,45.40
2023-04-20T17:26:10.667Z,45.70
2023-04-20T17:28:37.458Z,46.30
2023-04-20T17:31:04.295Z,45.10
2023-04-20T17:33:31.515Z,45.20
2023-04-20T17:36:00.067Z,44.50
2023-04-20T17:38:26.935Z,44.10
2023-04-20T17:40:53.828Z,44.20
2023-04-20T17:43:20.874Z,44.80
2023-04-20T17:45:51.585Z,45.80
2023-04-20T17:48:18.592Z,44.50
2023-04-20T17:50:51.937Z,45.40
2023-04-20T17:53:18.824Z,45.90
2023-04-20T17:55:45.876Z,46.00
2023-04-20T17:58:13.093Z,45.60
2023-04-20T18:00:40.328Z,45.90
2023-04-20T18:03:07.391Z,45.80
2023-04-20T18:05:34.396Z,46.00
2023-04-20T18:08:01.273Z,45.70
2023-04-20T18:10:28.417Z,46.20
2023-04-20T18:12:55.480Z,46.20
2023-04-20T18:15:22.299Z,46.60
2023-04-20T18:17:49.541Z,46.30
2023-04-20T18:20:16.583Z,46.00
2023-04-20T18:22:43.446Z,45.60
2023-04-20T18:25:10.363Z,44.80
2023-04-20T18:27:38.037Z,44.60
2023-04-20T18:30:05.682Z,44.80
2023-04-20T18:32:33.100Z,44.80
2023-04-20T18:35:00.506Z,44.70
2023-04-20T18:37:27.470Z,45.00
2023-04-20T18:39:54.520Z,44.90
2023-04-20T18:42:21.640Z,45.20
2023-04-20T18:44:51.010Z,45.60
2023-04-20T18:47:18.928Z,45.80
2023-04-20T18:49:45.732Z,45.80
2023-04-20T18:52:12.767Z,45.60
2023-04-20T18:54:40.137Z,45.70
2023-04-20T18:57:07.502Z,45.80
2023-04-20T18:59:34.356Z,46.00
2023-04-20T19:02:01.454Z,47.10
2023-04-20T19:04:29.629Z,46.70
2023-04-20T19:06:56.641Z,46.60
2023-04-20T19:09:23.548Z,47.10
2023-04-20T19:11:50.990Z,47.60
2023-04-20T19:14:18.171Z,47.90
2023-04-20T19:16:45.235Z,47.70
2023-04-20T19:19:12.119Z,48.20
2023-04-20T19:21:39.072Z,47.00
2023-04-20T19:24:06.481Z,47.20
2023-04-20T19:26:33.300Z,47.50
2023-04-20T19:29:00.440Z,47.60
2023-04-20T19:31:32.145Z,47.60
2023-04-20T19:33:59.276Z,47.60
2023-04-20T19:36:26.276Z,46.90
2023-04-20T19:38:53.201Z,46.90
2023-04-20T19:41:20.075Z,47.00
2023-04-20T19:43:47.064Z,46.00
2023-04-20T19:46:16.890Z,46.10
2023-04-20T19:48:44.378Z,46.30
2023-04-20T19:51:11.826Z,46.50
2023-04-20T19:53:38.767Z,46.90
2023-04-20T19:56:06.720Z,46.90
2023-04-20T19:58:33.705Z,47.40
2023-04-20T20:01:01.243Z,47.70
2023-04-20T20:03:28.416Z,48.10
2023-04-20T20:05:55.649Z,48.10
2023-04-20T20:08:22.580Z,48.10
2023-04-20T20:10:49.481Z,48.50
2023-04-20T20:13:16.422Z,48.90
2023-04-20T20:15:44.450Z,49.20
2023-04-20T20:18:12.192Z,49.20
2023-04-20T20:20:39.256Z,49.40
2023-04-20T20:23:06.294Z,49.40
2023-04-20T20:25:35.150Z,49.70
2023-04-20T20:28:02.221Z,50.00
2023-04-20T20:30:31.831Z,50.00
2023-04-20T20:32:58.987Z,50.40
2023-04-20T20:35:30.917Z,50.30
2023-04-20T20:37:58.553Z,50.20
2023-04-20T20:40:25.695Z,51.40
2023-04-20T20:42:52.610Z,50.60
2023-04-20T20:45:19.526Z,50.90
2023-04-20T20:47:46.496Z,51.00
2023-04-20T20:50:15.059Z,51.00
2023-04-20T20:52:42.192Z,51.60
2023-04-20T20:55:09.844Z,51.60
2023-04-20T20:57:37.386Z,53.00
2023-04-20T21:00:10.157Z,51.90
2023-04-20T21:02:37.891Z,52.20
2023-04-20T21:05:05.470Z,52.30
2023-04-20T21:07:32.359Z,52.40
2023-04-20T21:09:59.207Z,52.70
2023-04-20T21:12:26.267Z,52.80
2023-04-20T21:14:53.310Z,53.20
2023-04-20T21:17:20.422Z,53.40
2023-04-20T21:19:47.396Z,53.30
2023-04-20T21:22:14.293Z,53.00
2023-04-20T21:24:41.222Z,53.20
2023-04-20T21:27:08.177Z,53.70
2023-04-20T21:29:34.982Z,53.70
2023-04-20T21:32:03.367Z,53.90
2023-04-20T21:34:30.675Z,53.70
2023-04-20T21:37:03.630Z,53.90
2023-04-20T21:39:32.102Z,54.00
2023-04-20T21:41:59.722Z,54.30
2023-04-20T21:44:26.945Z,54.40
2023-04-20T21:46:53.949Z,54.80
2023-04-20T21:49:21.080Z,54.60
2023-04-20T21:51:48.014Z,54.60
2023-04-20T21:54:15.302Z,55.20
2023-04-20T21:56:42.386Z,55.10
2023-04-20T21:59:09.329Z,54.90
2023-04-20T22:01:36.331Z,54.80
2023-04-20T22:04:04.617Z,54.80
2023-04-20T22:06:34.590Z,55.90
2023-04-20T22:09:01.979Z,56.90
2023-04-20T22:11:29.702Z,57.30
2023-04-20T22:13:59.436Z,58.20
2023-04-20T22:16:28.470Z,58.80
2023-04-20T22:18:55.632Z,59.30
2023-04-20T22:21:22.558Z,60.20
2023-04-20T22:23:49.464Z,60.90
2023-04-20T22:26:16.830Z,61.30
2023-04-20T22:28:43.803Z,61.90
2023-04-20T22:31:10.604Z,62.20
2023-04-20T22:33:37.579Z,62.60
2023-04-20T22:36:04.673Z,63.20
2023-04-20T22:38:31.733Z,63.70
2023-04-20T22:40:58.596Z,64.40
2023-04-20T22:43:25.367Z,64.50
2023-04-20T22:45:53.922Z,64.80
2023-04-20T22:48:23.853Z,65.20
2023-04-20T22:50:51.128Z,65.60
2023-04-20T22:53:18.041Z,65.60
2023-04-20T22:55:44.825Z,65.90
2023-04-20T22:58:11.594Z,66.00
2023-04-20T23:00:38.880Z,66.20
2023-04-20T23:03:06.075Z,66.50
2023-04-20T23:05:33.019Z,66.30
2023-04-20T23:08:00.578Z,66.10
2023-04-20T23:10:29.585Z,66.70
2023-04-20T23:12:56.505Z,66.60
2023-04-20T23:15:23.393Z,66.90
2023-04-20T23:17:50.796Z,66.70
2023-04-20T23:20:17.824Z,66.50
2023-04-20T23:22:44.788Z,66.80
2023-04-20T23:25:11.744Z,66.80
2023-04-20T23:27:38.631Z,67.00
2023-04-20T23:30:06.717Z,66.70
2023-04-20T23:32:33.633Z,66.80
2023-04-20T23:35:01.299Z,66.90
2023-04-20T23:37:28.165Z,66.70
2023-04-20T23:39:55.032Z,67.00
2023-04-20T23:42:21.817Z,67.00
2023-04-20T23:44:48.831Z,66.70
2023-04-20T23:47:15.881Z,66.70
2023-04-20T23:49:42.778Z,66.80
2023-04-20T23:52:09.832Z,66.90
2023-04-20T23:54:36.650Z,66.90
2023-04-20T23:57:03.411Z,66.80
2023-04-20T23:59:30.498Z,67.00
